Lattimore, North Carolina
Current Conditions -  °F | °C
As of 4:15 PM on Monday 24 Nov 2014 (Local Time) from KEHO Reporting Station
Clear Clear  
Wind Chill: 71°   Ceiling: Unl
Heat Index: 71°   Visibility: 10mi
Dew Point: 52°   Wind: 16mph
Humidity: 51%   Direction: 210°SSW
Pressure: 29.77"   Gusts: 25mph
Location:  35.32°N, 81.66°W
Report Text: KEHO 242115Z AUTO 21014G22KT 10SM CLR 22/11 A2977 RMK AO2 T02150110
Loading
Personal Weather Stations






























Interactive Weather Map New forecast layout! Learn more

10-Day Weather Forecast

Advertisements
Track Severe Weather on mobile